Time;durP1;ratioP1;P1;durP2;ratioP2;P2;SDS_P1;SDS_P2;PMS_P1;PMS_P2;Temp;Humidity;BMP_temperature;BMP_pressure;BME280_temperature;BME280_humidity;BME280_pressure;Samples;Min_cycle;Max_cycle;Signal;HPM_P1;HPM_P2
2023/12/23 00:01:12;;;;;;;7.87;2.87;;;9.60;99.90;;;;;;5081635;28;20233;-54
2023/12/23 00:03:41;;;;;;;14.20;3.10;;;9.60;99.90;;;;;;5080969;28;20686;-56
2023/12/23 00:06:10;;;;;;;7.53;2.67;;;9.60;99.90;;;;;;5079941;28;20343;-56
2023/12/23 00:08:39;;;;;;;4.97;2.40;;;9.60;99.90;;;;;;5083052;28;20681;-55
2023/12/23 00:11:07;;;;;;;10.00;2.70;;;9.60;99.90;;;;;;5082273;28;20538;-55
2023/12/23 00:13:35;;;;;;;7.57;2.97;;;9.60;99.90;;;;;;5085520;28;20216;-56
2023/12/23 00:16:04;;;;;;;8.20;2.37;;;9.60;99.90;;;;;;5078274;28;20235;-56
2023/12/23 00:18:33;;;;;;;9.97;2.43;;;9.60;99.90;;;;;;5083789;28;20227;-55
2023/12/23 00:21:01;;;;;;;6.57;2.30;;;9.60;99.90;;;;;;5084992;28;20220;-55
2023/12/23 00:23:29;;;;;;;7.90;2.70;;;9.60;99.90;;;;;;5083049;28;20746;-56
2023/12/23 00:25:57;;;;;;;5.57;2.23;;;9.70;99.90;;;;;;5082742;28;20192;-55
2023/12/23 00:28:26;;;;;;;8.93;2.70;;;9.70;99.90;;;;;;5086577;28;20191;-56
2023/12/23 00:30:54;;;;;;;8.97;2.93;;;9.70;99.90;;;;;;5084191;28;20215;-56
2023/12/23 00:33:24;;;;;;;12.13;2.67;;;9.70;99.90;;;;;;5081234;28;20223;-54
2023/12/23 00:35:52;;;;;;;9.30;2.70;;;9.70;99.90;;;;;;5079852;28;20223;-57
2023/12/23 00:38:20;;;;;;;5.70;2.60;;;9.70;99.90;;;;;;5081962;28;20569;-56
2023/12/23 00:40:48;;;;;;;11.57;3.00;;;9.70;99.90;;;;;;5080862;28;20215;-56
2023/12/23 00:43:17;;;;;;;8.20;2.30;;;9.70;99.90;;;;;;5084323;28;20212;-57
2023/12/23 00:45:45;;;;;;;9.57;3.03;;;9.80;99.90;;;;;;5081573;28;20219;-55
2023/12/23 00:48:13;;;;;;;8.57;2.40;;;9.70;99.90;;;;;;5087439;28;20572;-56
2023/12/23 00:50:43;;;;;;;8.33;2.80;;;9.70;99.90;;;;;;5084052;27;20227;-56
2023/12/23 00:53:11;;;;;;;9.30;2.83;;;9.80;99.90;;;;;;5080399;28;20191;-56
2023/12/23 00:55:39;;;;;;;5.27;2.47;;;9.80;99.90;;;;;;5082210;28;20207;-55
2023/12/23 00:58:07;;;;;;;9.33;2.80;;;9.70;99.90;;;;;;5080280;28;20264;-56
2023/12/23 01:00:37;;;;;;;8.97;2.63;;;9.70;99.90;;;;;;5079945;28;20230;-55
2023/12/23 01:03:05;;;;;;;9.77;2.60;;;9.70;99.90;;;;;;5082254;28;20225;-56
2023/12/23 01:05:34;;;;;;;11.17;2.80;;;9.60;99.90;;;;;;5083919;28;20575;-56
2023/12/23 01:08:04;;;;;;;6.70;2.13;;;9.60;99.90;;;;;;5078792;28;20538;-53
2023/12/23 01:10:32;;;;;;;8.53;2.30;;;9.60;99.90;;;;;;5080618;28;21417;-55
2023/12/23 01:13:01;;;;;;;8.80;2.83;;;9.70;99.90;;;;;;5077862;28;21456;-57
2023/12/23 01:15:29;;;;;;;15.57;3.00;;;9.60;99.90;;;;;;5080888;28;20317;-55
2023/12/23 01:17:57;;;;;;;8.03;2.33;;;9.60;99.90;;;;;;5083118;28;20234;-56
2023/12/23 01:20:25;;;;;;;10.83;2.80;;;9.60;99.90;;;;;;5082362;28;20231;-56
2023/12/23 01:22:54;;;;;;;8.50;2.40;;;9.60;99.90;;;;;;5084046;28;20184;-56
2023/12/23 01:25:23;;;;;;;8.10;2.40;;;9.60;99.90;;;;;;5083565;28;20606;-56
2023/12/23 01:27:52;;;;;;;11.97;2.77;;;9.60;99.90;;;;;;5081199;28;20302;-56
2023/12/23 01:30:20;;;;;;;8.23;2.67;;;9.60;99.90;;;;;;5080698;28;20645;-55
2023/12/23 01:32:48;;;;;;;10.90;2.50;;;9.60;99.90;;;;;;5084834;28;20219;-55
2023/12/23 01:35:17;;;;;;;9.97;2.33;;;9.50;99.90;;;;;;5080334;28;20308;-54
2023/12/23 01:37:45;;;;;;;5.50;2.50;;;9.60;99.90;;;;;;5085544;28;20643;-55
2023/12/23 01:40:14;;;;;;;9.97;2.23;;;9.60;99.90;;;;;;5083577;28;20631;-57
2023/12/23 01:42:45;;;;;;;8.57;2.30;;;9.60;99.90;;;;;;5087718;28;20310;-55
2023/12/23 01:45:13;;;;;;;4.93;2.33;;;9.60;99.90;;;;;;5081874;28;20218;-56
2023/12/23 01:47:43;;;;;;;8.60;2.40;;;9.60;99.90;;;;;;5090763;28;20241;-55
2023/12/23 01:50:12;;;;;;;8.97;2.30;;;9.60;99.90;;;;;;5086245;28;20237;-56
2023/12/23 01:52:41;;;;;;;7.50;2.27;;;9.60;99.90;;;;;;5083280;28;20192;-56
2023/12/23 01:55:09;;;;;;;7.57;2.60;;;9.60;99.90;;;;;;5083714;28;20223;-55
2023/12/23 01:57:38;;;;;;;7.60;2.67;;;9.60;99.90;;;;;;5086958;28;20222;-56
2023/12/23 02:00:09;;;;;;;8.23;2.07;;;9.60;99.90;;;;;;5087552;28;20215;-56
2023/12/23 02:02:38;;;;;;;6.90;2.70;;;9.60;99.90;;;;;;5100699;28;20235;-54
2023/12/23 02:05:07;;;;;;;8.07;2.33;;;9.60;99.90;;;;;;5084741;28;20253;-55
2023/12/23 02:07:36;;;;;;;16.53;3.13;;;9.60;99.90;;;;;;5086795;28;20523;-55
2023/12/23 02:10:06;;;;;;;6.93;2.13;;;9.60;99.90;;;;;;5083510;28;20300;-56
2023/12/23 02:12:40;;;;;;;3.80;1.70;;;9.60;99.90;;;;;;5083481;28;20307;-54
2023/12/23 02:15:13;;;;;;;5.57;2.30;;;9.60;99.90;;;;;;5089226;28;20589;-56
2023/12/23 02:17:41;;;;;;;7.50;2.40;;;9.60;99.90;;;;;;5084029;28;20219;-56
2023/12/23 02:20:11;;;;;;;6.57;2.20;;;9.60;99.90;;;;;;5085610;28;20184;-56
2023/12/23 02:22:40;;;;;;;4.63;1.80;;;9.60;99.90;;;;;;5083148;28;20666;-55
2023/12/23 02:25:09;;;;;;;6.73;2.23;;;9.60;99.90;;;;;;5082167;28;20725;-55
2023/12/23 02:27:44;;;;;;;6.37;1.90;;;9.70;99.90;;;;;;5088326;28;20704;-55
2023/12/23 02:30:14;;;;;;;8.90;2.20;;;9.70;99.90;;;;;;5083250;28;20233;-56
2023/12/23 02:32:44;;;;;;;8.13;2.20;;;9.70;99.90;;;;;;5085345;28;20227;-57
2023/12/23 02:35:13;;;;;;;8.70;2.10;;;9.70;99.90;;;;;;5084631;28;20557;-56
2023/12/23 02:37:43;;;;;;;10.00;2.33;;;9.60;99.90;;;;;;5085203;28;20195;-53
2023/12/23 02:40:11;;;;;;;9.87;2.30;;;9.70;99.90;;;;;;5084038;28;20284;-57
2023/12/23 02:42:40;;;;;;;9.43;2.20;;;9.60;99.90;;;;;;5085387;28;20234;-56
2023/12/23 02:45:09;;;;;;;11.67;2.40;;;9.60;99.90;;;;;;5083243;28;20215;-56
2023/12/23 02:47:37;;;;;;;7.20;2.40;;;9.60;99.90;;;;;;5086162;27;20222;-57
2023/12/23 02:50:06;;;;;;;9.30;2.40;;;9.60;99.90;;;;;;5080954;28;20604;-56
2023/12/23 02:52:34;;;;;;;6.50;2.30;;;9.60;99.90;;;;;;5088809;28;20292;-57
2023/12/23 02:55:05;;;;;;;7.37;1.73;;;9.60;99.90;;;;;;5081278;28;20313;-56
2023/12/23 02:57:33;;;;;;;7.80;2.57;;;9.70;99.90;;;;;;5080807;28;20227;-56
2023/12/23 03:00:01;;;;;;;10.30;2.40;;;9.70;99.90;;;;;;5082159;28;20581;-57
2023/12/23 03:02:29;;;;;;;8.93;2.30;;;9.70;99.90;;;;;;5084709;28;20231;-57
2023/12/23 03:04:58;;;;;;;11.07;2.53;;;9.70;99.90;;;;;;5085129;28;20199;-55
2023/12/23 03:07:26;;;;;;;5.43;2.10;;;9.70;99.90;;;;;;5088341;28;20198;-56
2023/12/23 03:09:54;;;;;;;9.20;2.00;;;9.70;99.90;;;;;;5081334;28;20211;-55
2023/12/23 03:12:24;;;;;;;7.07;2.37;;;9.70;99.90;;;;;;5082396;28;20222;-55
2023/12/23 03:14:52;;;;;;;5.67;2.60;;;9.70;99.90;;;;;;5085189;28;20483;-55
2023/12/23 03:17:20;;;;;;;6.90;2.10;;;9.70;99.90;;;;;;5082682;28;20227;-54
2023/12/23 03:19:48;;;;;;;6.90;2.30;;;9.80;99.90;;;;;;5082976;28;20308;-57
2023/12/23 03:22:18;;;;;;;11.07;2.07;;;9.70;99.90;;;;;;5084991;28;20302;-56
2023/12/23 03:24:46;;;;;;;7.53;2.20;;;9.70;99.90;;;;;;5084496;28;20242;-56
2023/12/23 03:27:15;;;;;;;6.80;2.27;;;9.80;99.90;;;;;;5082110;28;20218;-56
2023/12/23 03:29:44;;;;;;;6.53;1.97;;;9.80;99.90;;;;;;5082135;27;20247;-56
2023/12/23 03:32:12;;;;;;;10.60;2.27;;;9.70;99.90;;;;;;5082878;28;20561;-56
2023/12/23 03:34:41;;;;;;;8.40;2.57;;;9.80;99.90;;;;;;5080832;28;20210;-55
2023/12/23 03:37:09;;;;;;;9.40;2.20;;;9.80;99.90;;;;;;5086503;28;20223;-57
2023/12/23 03:39:38;;;;;;;6.57;2.03;;;9.80;99.90;;;;;;5084173;28;20219;-56
2023/12/23 03:42:06;;;;;;;5.53;2.40;;;9.80;99.90;;;;;;5084706;28;20226;-56
2023/12/23 03:44:34;;;;;;;8.30;2.23;;;9.80;99.90;;;;;;5081864;28;20227;-56
2023/12/23 03:47:04;;;;;;;3.23;1.80;;;9.90;99.90;;;;;;5081380;28;20194;-54
2023/12/23 03:49:32;;;;;;;6.27;2.77;;;9.90;99.90;;;;;;5080758;28;20286;-56
2023/12/23 03:52:00;;;;;;;6.33;2.10;;;9.80;99.90;;;;;;5084741;28;20224;-56
2023/12/23 03:54:28;;;;;;;5.40;2.07;;;9.80;99.90;;;;;;5081856;28;20219;-56
2023/12/23 03:56:57;;;;;;;10.00;2.40;;;9.80;99.90;;;;;;5085429;28;20802;-56
2023/12/23 03:59:25;;;;;;;5.30;1.93;;;9.80;99.90;;;;;;5085528;28;20219;-57
2023/12/23 04:01:53;;;;;;;3.53;1.90;;;9.70;99.90;;;;;;5082688;28;20192;-56
2023/12/23 04:04:23;;;;;;;8.57;2.50;;;9.80;99.90;;;;;;5084658;28;20590;-56
2023/12/23 04:06:51;;;;;;;7.17;1.70;;;9.80;99.90;;;;;;5082335;28;20215;-57
2023/12/23 04:09:20;;;;;;;6.53;2.23;;;9.80;99.90;;;;;;5085812;28;20219;-55
2023/12/23 04:11:48;;;;;;;5.40;2.07;;;9.80;99.90;;;;;;5085645;28;20676;-55
2023/12/23 04:14:16;;;;;;;12.50;2.40;;;9.80;99.90;;;;;;5083750;28;20304;-55
2023/12/23 04:16:44;;;;;;;9.47;2.50;;;9.80;99.90;;;;;;5085781;28;20709;-54
2023/12/23 04:19:12;;;;;;;6.23;2.30;;;9.80;99.90;;;;;;5086720;28;20220;-55
2023/12/23 04:21:42;;;;;;;7.17;2.00;;;9.70;99.90;;;;;;5084075;28;20219;-55
2023/12/23 04:24:10;;;;;;;3.20;2.00;;;9.80;99.90;;;;;;5080271;28;20332;-56
2023/12/23 04:26:38;;;;;;;4.33;2.00;;;9.80;99.90;;;;;;5086098;28;20573;-56
2023/12/23 04:29:06;;;;;;;10.00;2.10;;;9.80;99.90;;;;;;5077287;28;20183;-54
2023/12/23 04:31:35;;;;;;;9.17;2.00;;;9.80;99.90;;;;;;5079205;28;20188;-55
2023/12/23 04:34:04;;;;;;;9.20;2.10;;;9.80;99.90;;;;;;5082663;28;20218;-55
2023/12/23 04:36:32;;;;;;;7.03;2.20;;;9.80;99.90;;;;;;5081741;28;20226;-57
2023/12/23 04:39:04;;;;;;;9.67;2.50;;;9.80;99.90;;;;;;5075469;28;20216;-55
2023/12/23 04:41:33;;;;;;;6.37;2.20;;;9.80;99.90;;;;;;5081815;28;20993;-56
2023/12/23 04:44:02;;;;;;;6.97;2.10;;;9.70;99.90;;;;;;5081898;28;20188;-57
2023/12/23 04:46:31;;;;;;;10.40;2.67;;;9.60;99.90;;;;;;5083908;28;20683;-56
2023/12/23 04:48:59;;;;;;;5.80;2.10;;;9.50;99.90;;;;;;5086380;28;20265;-56
2023/12/23 04:51:28;;;;;;;7.53;2.47;;;9.50;99.90;;;;;;5083198;28;20644;-55
2023/12/23 04:53:56;;;;;;;8.93;2.10;;;9.50;99.90;;;;;;5085182;28;20227;-56
2023/12/23 04:56:25;;;;;;;11.27;2.40;;;9.50;99.90;;;;;;5081905;28;20227;-57
2023/12/23 04:58:56;;;;;;;6.17;2.40;;;9.50;99.90;;;;;;5082536;28;20191;-57
2023/12/23 05:01:25;;;;;;;13.90;2.53;;;9.40;99.90;;;;;;5075773;28;20321;-56
2023/12/23 05:03:53;;;;;;;7.17;2.30;;;9.40;99.90;;;;;;5081611;28;20222;-55
2023/12/23 05:06:21;;;;;;;9.83;2.57;;;9.40;99.90;;;;;;5078436;28;20204;-54
2023/12/23 05:08:50;;;;;;;10.97;2.73;;;9.40;99.90;;;;;;5084418;28;20222;-56
2023/12/23 05:11:18;;;;;;;8.43;2.97;;;9.40;99.90;;;;;;5081253;28;20229;-54
2023/12/23 05:13:48;;;;;;;8.70;2.80;;;9.40;99.90;;;;;;5080938;28;20203;-56
2023/12/23 05:16:16;;;;;;;7.63;2.67;;;9.40;99.90;;;;;;5082597;28;20219;-56
2023/12/23 05:18:44;;;;;;;14.83;3.13;;;9.40;99.90;;;;;;5088428;28;20274;-55
2023/12/23 05:21:12;;;;;;;11.83;2.83;;;9.40;99.90;;;;;;5087732;28;20211;-55
2023/12/23 05:23:41;;;;;;;10.00;2.40;;;9.40;99.90;;;;;;5083341;28;20578;-55
2023/12/23 05:26:09;;;;;;;7.33;2.30;;;9.40;99.90;;;;;;5084360;28;20192;-55
2023/12/23 05:28:38;;;;;;;11.73;2.77;;;9.50;99.90;;;;;;5082437;28;20630;-56
2023/12/23 05:31:07;;;;;;;15.33;2.63;;;9.50;99.90;;;;;;5088746;28;20230;-55
2023/12/23 05:33:35;;;;;;;9.63;2.47;;;9.50;99.90;;;;;;5085382;27;20224;-55
2023/12/23 05:36:04;;;;;;;14.43;3.10;;;9.60;99.90;;;;;;5079643;28;20229;-56
2023/12/23 05:38:32;;;;;;;13.27;2.80;;;9.60;99.90;;;;;;5087255;28;20212;-56
2023/12/23 05:41:01;;;;;;;11.03;2.90;;;9.60;99.90;;;;;;5088282;28;20248;-57
2023/12/23 05:43:29;;;;;;;11.53;2.90;;;9.60;99.90;;;;;;5090063;28;20195;-56
2023/12/23 05:45:58;;;;;;;6.57;2.73;;;9.60;99.90;;;;;;5084111;28;20219;-56
2023/12/23 05:48:28;;;;;;;10.80;2.37;;;9.60;99.90;;;;;;5084281;28;20238;-57
2023/12/23 05:50:56;;;;;;;10.90;2.53;;;9.60;99.90;;;;;;5086510;28;20225;-56
2023/12/23 05:53:24;;;;;;;16.37;2.67;;;9.60;99.90;;;;;;5084373;28;20234;-55
2023/12/23 05:55:52;;;;;;;12.57;2.53;;;9.60;99.90;;;;;;5086614;28;20206;-56
2023/12/23 05:58:21;;;;;;;12.27;2.80;;;9.60;99.90;;;;;;5087298;28;20221;-55
2023/12/23 06:00:49;;;;;;;18.27;3.50;;;9.70;99.90;;;;;;5085114;28;20224;-56
2023/12/23 06:03:18;;;;;;;14.27;3.10;;;9.70;99.90;;;;;;5085461;28;20223;-57
2023/12/23 06:05:47;;;;;;;8.40;2.73;;;9.70;99.90;;;;;;5087470;28;20226;-56
2023/12/23 06:08:16;;;;;;;10.07;2.90;;;9.70;99.90;;;;;;5086443;28;20194;-57
2023/12/23 06:10:44;;;;;;;7.63;2.60;;;9.80;99.90;;;;;;5083764;28;20278;-56
2023/12/23 06:13:25;;;;;;;13.70;3.23;;;9.70;99.90;;;;;;5088294;28;20567;-57
2023/12/23 06:15:53;;;;;;;10.73;2.73;;;9.80;99.90;;;;;;5082521;28;20215;-57
2023/12/23 06:18:22;;;;;;;8.70;3.00;;;9.80;99.90;;;;;;5088359;28;20223;-55
2023/12/23 06:20:52;;;;;;;10.93;3.30;;;9.80;99.90;;;;;;5083855;28;20238;-56
2023/12/23 06:23:20;;;;;;;10.47;3.03;;;9.80;99.90;;;;;;5084411;28;20342;-57
2023/12/23 06:25:48;;;;;;;10.90;2.80;;;9.80;99.90;;;;;;5084508;28;20207;-56
2023/12/23 06:28:16;;;;;;;13.80;3.13;;;9.80;99.90;;;;;;5083086;28;20212;-55
2023/12/23 06:30:45;;;;;;;10.87;3.27;;;9.70;99.90;;;;;;5081170;28;20223;-56
2023/12/23 06:33:13;;;;;;;6.50;2.57;;;9.70;99.90;;;;;;5082887;28;20223;-56
2023/12/23 06:35:41;;;;;;;8.37;3.03;;;9.70;99.90;;;;;;5085418;28;20562;-57
2023/12/23 06:38:13;;;;;;;12.63;2.97;;;9.70;99.90;;;;;;5084617;28;20208;-57
2023/12/23 06:40:41;;;;;;;9.03;2.80;;;9.70;99.90;;;;;;5080885;28;20291;-56
2023/12/23 06:43:10;;;;;;;6.67;2.33;;;9.70;99.90;;;;;;5084661;28;20225;-56
2023/12/23 06:45:58;;;;;;;7.80;2.60;;;9.70;99.90;;;;;;5081928;28;20623;-56
2023/12/23 06:48:26;;;;;;;20.57;3.03;;;9.70;99.90;;;;;;5083833;28;20241;-56
2023/12/23 06:51:00;;;;;;;8.83;2.83;;;9.80;99.90;;;;;;5082589;27;20215;-56
2023/12/23 06:53:30;;;;;;;12.57;2.87;;;9.70;99.90;;;;;;5082123;28;21311;-56
2023/12/23 06:55:58;;;;;;;14.57;2.40;;;9.80;99.90;;;;;;5082789;28;20191;-54
2023/12/23 06:58:29;;;;;;;15.90;3.20;;;9.80;99.90;;;;;;5084557;28;20772;-56
2023/12/23 07:00:57;;;;;;;9.27;2.60;;;9.80;99.90;;;;;;5081952;28;20219;-53
2023/12/23 07:03:25;;;;;;;13.03;2.87;;;9.80;99.90;;;;;;5079519;28;20222;-54
2023/12/23 07:05:53;;;;;;;17.30;3.00;;;9.80;99.90;;;;;;5084498;28;20642;-55
2023/12/23 07:08:22;;;;;;;9.40;2.10;;;9.80;99.90;;;;;;5083969;28;20254;-52
2023/12/23 07:10:51;;;;;;;8.30;2.73;;;9.80;99.90;;;;;;5084674;28;20187;-57
2023/12/23 07:13:20;;;;;;;6.87;2.50;;;9.80;99.90;;;;;;5086322;28;20296;-56
2023/12/23 07:15:48;;;;;;;12.97;2.80;;;9.90;99.90;;;;;;5081097;28;20224;-57
2023/12/23 07:18:16;;;;;;;13.90;2.63;;;9.90;99.90;;;;;;5084550;28;20229;-56
2023/12/23 07:20:46;;;;;;;12.70;2.73;;;9.90;99.90;;;;;;5083812;28;20246;-55
2023/12/23 07:23:14;;;;;;;9.93;2.67;;;9.80;99.90;;;;;;5083622;28;20641;-57
2023/12/23 07:25:42;;;;;;;6.20;2.80;;;9.80;99.90;;;;;;5084728;28;20244;-55
2023/12/23 07:28:12;;;;;;;8.00;2.40;;;9.80;99.90;;;;;;5081861;28;20225;-56
2023/12/23 07:30:44;;;;;;;7.50;2.90;;;9.80;99.90;;;;;;5082403;28;20227;-56
2023/12/23 07:33:13;;;;;;;7.27;2.33;;;9.90;99.90;;;;;;5083604;28;20585;-55
2023/12/23 07:35:42;;;;;;;10.90;2.50;;;9.80;99.90;;;;;;5080483;28;20215;-55
2023/12/23 07:38:11;;;;;;;14.50;3.10;;;9.90;99.90;;;;;;5076998;28;20290;-56
2023/12/23 07:40:40;;;;;;;7.87;2.30;;;9.90;99.90;;;;;;5081662;28;20267;-56
2023/12/23 07:43:08;;;;;;;9.30;2.33;;;9.90;99.90;;;;;;5082073;28;20225;-55
2023/12/23 07:45:38;;;;;;;7.93;2.50;;;9.90;99.90;;;;;;5086199;28;20226;-54
2023/12/23 07:48:06;;;;;;;9.93;2.37;;;9.90;99.90;;;;;;5083598;28;20220;-56
2023/12/23 07:50:34;;;;;;;10.70;2.10;;;9.90;99.90;;;;;;5082873;28;20220;-54
2023/12/23 07:53:03;;;;;;;9.60;2.77;;;9.90;99.90;;;;;;5083001;28;20207;-56
2023/12/23 07:55:31;;;;;;;8.07;2.30;;;10.00;99.90;;;;;;5080465;28;20224;-55
2023/12/23 07:58:00;;;;;;;4.10;2.27;;;10.00;99.90;;;;;;5082280;28;20288;-55
2023/12/23 08:00:28;;;;;;;15.37;2.77;;;10.00;99.90;;;;;;5079719;28;20242;-56
2023/12/23 08:02:58;;;;;;;8.43;2.90;;;10.00;99.90;;;;;;5080663;28;20227;-56
2023/12/23 08:05:31;;;;;;;7.27;2.47;;;10.00;99.90;;;;;;5082476;28;20216;-56
2023/12/23 08:07:59;;;;;;;8.70;2.97;;;10.00;99.90;;;;;;5082529;28;20191;-56
2023/12/23 08:10:28;;;;;;;6.73;2.07;;;10.00;99.90;;;;;;5084089;28;20215;-57
2023/12/23 08:12:56;;;;;;;7.03;2.37;;;10.00;99.90;;;;;;5083096;28;20211;-55
2023/12/23 08:15:24;;;;;;;9.27;2.27;;;10.10;99.90;;;;;;5081622;28;20219;-56
2023/12/23 08:17:52;;;;;;;6.33;2.10;;;10.20;99.90;;;;;;5080060;28;20243;-56
2023/12/23 08:20:22;;;;;;;5.97;2.70;;;10.20;99.90;;;;;;5079123;28;20229;-56
2023/12/23 08:22:51;;;;;;;10.17;2.40;;;10.10;99.90;;;;;;5082965;28;21046;-56
2023/12/23 08:25:20;;;;;;;6.17;2.20;;;10.10;99.90;;;;;;5080748;28;20224;-56
2023/12/23 08:27:48;;;;;;;6.10;2.10;;;10.10;99.90;;;;;;5085052;28;20599;-56
2023/12/23 08:30:17;;;;;;;6.73;2.37;;;10.10;99.90;;;;;;5085058;28;20207;-56
2023/12/23 08:32:45;;;;;;;7.90;2.30;;;10.10;99.90;;;;;;5078329;28;20215;-55
2023/12/23 08:35:14;;;;;;;9.03;2.47;;;10.10;99.90;;;;;;5076443;28;20287;-55
2023/12/23 08:37:44;;;;;;;8.20;2.40;;;10.20;99.90;;;;;;5088215;28;20200;-55
2023/12/23 08:40:12;;;;;;;11.80;2.27;;;10.20;99.90;;;;;;5084798;28;20306;-55
2023/12/23 08:42:40;;;;;;;8.27;2.07;;;10.30;99.90;;;;;;5081318;28;20311;-56
2023/12/23 08:45:09;;;;;;;11.73;2.43;;;10.30;99.90;;;;;;5079562;28;20212;-56
2023/12/23 08:47:37;;;;;;;5.07;2.07;;;10.40;99.90;;;;;;5081068;28;20223;-54
2023/12/23 08:50:07;;;;;;;6.00;2.37;;;10.40;99.90;;;;;;5083987;28;20183;-54
2023/12/23 08:52:35;;;;;;;10.27;2.77;;;10.50;99.90;;;;;;5082516;28;20226;-54
2023/12/23 08:55:05;;;;;;;5.60;2.07;;;10.50;99.90;;;;;;5079424;28;20231;-56
2023/12/23 08:57:33;;;;;;;7.17;2.00;;;10.50;99.90;;;;;;5081574;28;20246;-56
2023/12/23 09:00:02;;;;;;;5.70;2.50;;;10.50;99.90;;;;;;5080306;28;20215;-55
2023/12/23 09:02:31;;;;;;;6.73;2.33;;;10.50;99.90;;;;;;5080551;28;20288;-56
2023/12/23 09:04:59;;;;;;;7.60;2.20;;;10.50;99.90;;;;;;5078719;28;20191;-57
2023/12/23 09:07:28;;;;;;;7.67;2.23;;;10.50;99.90;;;;;;5078807;28;20191;-56
2023/12/23 09:09:58;;;;;;;7.70;2.60;;;10.60;99.90;;;;;;5079941;28;20224;-56
2023/12/23 09:12:27;;;;;;;10.43;2.20;;;10.60;99.90;;;;;;5078917;28;20227;-55
2023/12/23 09:14:55;;;;;;;5.17;2.37;;;10.60;99.90;;;;;;5079450;28;20227;-54
2023/12/23 09:17:24;;;;;;;5.67;2.03;;;10.60;99.90;;;;;;5082386;28;20594;-57
2023/12/23 09:19:52;;;;;;;6.47;2.50;;;10.60;99.90;;;;;;5083998;28;20246;-56
2023/12/23 09:22:21;;;;;;;2.80;2.17;;;10.60;99.90;;;;;;5084658;28;20211;-56
2023/12/23 09:24:49;;;;;;;9.00;2.10;;;10.70;99.90;;;;;;5081517;28;20222;-55
2023/12/23 09:27:18;;;;;;;9.70;2.27;;;10.70;99.90;;;;;;5083602;28;20220;-56
2023/12/23 09:29:47;;;;;;;11.30;2.77;;;10.80;99.90;;;;;;5081905;28;20234;-55
2023/12/23 09:32:15;;;;;;;8.47;2.30;;;10.80;99.90;;;;;;5079215;27;20199;-56
2023/12/23 09:34:44;;;;;;;5.33;1.83;;;10.80;99.90;;;;;;5080192;28;20279;-56
2023/12/23 09:37:12;;;;;;;10.07;2.07;;;10.80;99.90;;;;;;5084319;28;20211;-57
2023/12/23 09:39:40;;;;;;;6.43;2.00;;;10.90;99.90;;;;;;5081540;28;20211;-56
2023/12/23 09:42:09;;;;;;;7.93;2.20;;;11.00;99.90;;;;;;5078746;28;20220;-56
2023/12/23 09:44:38;;;;;;;4.83;1.87;;;11.00;99.90;;;;;;5080066;28;20227;-56
2023/12/23 09:47:08;;;;;;;7.07;2.00;;;11.10;99.90;;;;;;5081427;28;20200;-56
2023/12/23 09:49:36;;;;;;;4.37;2.00;;;11.10;99.90;;;;;;5079469;28;20227;-56
2023/12/23 09:52:05;;;;;;;7.00;1.87;;;11.10;99.90;;;;;;5081908;28;20276;-57
2023/12/23 09:54:40;;;;;;;9.10;2.37;;;11.20;99.90;;;;;;5082777;28;20251;-55
2023/12/23 09:57:08;;;;;;;4.33;1.93;;;11.20;99.90;;;;;;5083356;28;20233;-57
2023/12/23 09:59:36;;;;;;;6.00;2.07;;;11.20;99.90;;;;;;5077897;28;20224;-56
2023/12/23 10:02:06;;;;;;;8.17;1.87;;;11.20;99.90;;;;;;5083141;28;20210;-56
2023/12/23 10:04:35;;;;;;;6.87;2.27;;;11.20;99.90;;;;;;5084470;28;20203;-56
2023/12/23 10:07:03;;;;;;;9.73;1.87;;;11.20;99.90;;;;;;5085215;28;20226;-57
2023/12/23 10:09:33;;;;;;;5.13;2.07;;;11.20;99.90;;;;;;5084106;28;20219;-56
2023/12/23 10:12:02;;;;;;;8.23;2.00;;;11.30;99.90;;;;;;5081296;28;20250;-56
2023/12/23 10:14:30;;;;;;;8.20;1.83;;;11.40;99.90;;;;;;5082349;28;20235;-56
2023/12/23 10:16:59;;;;;;;6.13;2.00;;;11.50;99.90;;;;;;5084427;28;20227;-57
2023/12/23 10:19:28;;;;;;;5.77;2.10;;;11.50;99.90;;;;;;5088691;28;20223;-57
2023/12/23 10:21:57;;;;;;;6.73;2.30;;;11.50;99.90;;;;;;5083253;28;20212;-57
2023/12/23 10:24:26;;;;;;;8.73;2.33;;;11.60;99.90;;;;;;5087340;28;20241;-57
2023/12/23 10:26:55;;;;;;;6.07;2.10;;;11.50;99.90;;;;;;5084148;28;20215;-56
2023/12/23 10:29:27;;;;;;;3.27;1.80;;;11.50;99.90;;;;;;5082887;28;20219;-56
2023/12/23 10:31:57;;;;;;;5.47;1.87;;;11.50;99.90;;;;;;5085114;28;21108;-56
2023/12/23 10:34:32;;;;;;;5.23;1.90;;;11.60;99.90;;;;;;4978893;28;20300;-56
2023/12/23 10:37:00;;;;;;;9.07;3.07;;;11.60;99.90;;;;;;4982612;28;20592;-56
2023/12/23 10:39:31;;;;;;;10.47;2.60;;;11.60;99.90;;;;;;5040926;28;20561;-55
2023/12/23 10:42:04;;;;;;;8.27;2.17;;;11.60;99.90;;;;;;5081444;28;20314;-56
2023/12/23 10:44:34;;;;;;;12.80;2.53;;;11.60;99.90;;;;;;5081633;28;20234;-54
2023/12/23 10:47:03;;;;;;;5.70;2.00;;;11.60;99.90;;;;;;5081002;28;20519;-55
2023/12/23 10:49:35;;;;;;;6.70;2.00;;;11.70;99.90;;;;;;5085335;28;20214;-54
2023/12/23 10:52:04;;;;;;;5.03;1.97;;;11.60;99.90;;;;;;5081675;28;20227;-56
2023/12/23 10:54:34;;;;;;;8.80;1.90;;;11.60;99.90;;;;;;5081369;28;20227;-54
2023/12/23 10:57:02;;;;;;;5.50;2.60;;;11.60;99.90;;;;;;5082361;28;20230;-55
2023/12/23 10:59:31;;;;;;;11.03;2.87;;;11.70;99.90;;;;;;5084077;28;20215;-56
2023/12/23 11:02:02;;;;;;;7.53;2.00;;;11.80;99.90;;;;;;5087798;28;20203;-56
2023/12/23 11:04:32;;;;;;;9.43;2.20;;;11.90;99.90;;;;;;5083285;28;20576;-56
2023/12/23 11:07:03;;;;;;;9.97;2.23;;;12.00;99.90;;;;;;5087218;28;20226;-56
2023/12/23 11:09:32;;;;;;;5.63;2.10;;;12.20;99.90;;;;;;5082659;28;20218;-56
2023/12/23 11:12:01;;;;;;;5.50;2.20;;;12.20;98.30;;;;;;5081295;28;20220;-56
2023/12/23 11:14:30;;;;;;;7.27;1.97;;;12.30;97.00;;;;;;5083716;28;20230;-57
2023/12/23 11:16:59;;;;;;;4.60;2.40;;;12.30;97.90;;;;;;5081108;28;20260;-56
2023/12/23 11:19:27;;;;;;;5.63;1.80;;;12.30;96.20;;;;;;5085116;28;20314;-56
2023/12/23 11:22:25;;;;;;;4.00;1.87;;;12.30;96.20;;;;;;5081663;28;20211;-55
2023/12/23 11:24:54;;;;;;;6.83;2.23;;;12.50;96.50;;;;;;5080940;28;20261;-56
2023/12/23 11:27:33;;;;;;;3.50;1.80;;;12.50;99.90;;;;;;5081521;28;20673;-56
2023/12/23 11:30:04;;;;;;;7.43;2.13;;;12.60;97.30;;;;;;5085622;28;20215;-56
2023/12/23 11:32:36;;;;;;;6.13;2.00;;;12.60;93.90;;;;;;5082738;27;20226;-56
2023/12/23 11:35:06;;;;;;;7.63;2.17;;;12.40;93.00;;;;;;5082357;28;20192;-56
2023/12/23 11:37:52;;;;;;;6.70;2.57;;;12.30;95.10;;;;;;5083381;28;20200;-55
2023/12/23 11:40:22;;;;;;;6.40;1.73;;;12.20;96.60;;;;;;5079778;28;20717;-56
2023/12/23 11:42:51;;;;;;;8.37;2.60;;;12.10;97.80;;;;;;5081080;28;20319;-56
2023/12/23 11:45:20;;;;;;;8.23;2.00;;;12.10;99.20;;;;;;5084468;28;20247;-56
2023/12/23 11:47:50;;;;;;;9.23;2.20;;;12.10;99.30;;;;;;5084071;28;20243;-56
2023/12/23 11:50:18;;;;;;;5.20;2.10;;;12.10;99.60;;;;;;5083573;28;20226;-56
2023/12/23 11:52:47;;;;;;;5.63;1.93;;;12.20;99.90;;;;;;5079285;28;20188;-55
2023/12/23 11:55:18;;;;;;;12.80;2.40;;;12.10;98.70;;;;;;5083717;28;20552;-56
2023/12/23 11:57:47;;;;;;;9.37;2.10;;;12.10;99.90;;;;;;5082490;28;20303;-53
2023/12/23 12:00:16;;;;;;;7.17;2.23;;;12.10;99.70;;;;;;5085995;28;20215;-55
2023/12/23 12:02:44;;;;;;;7.10;1.80;;;12.10;99.80;;;;;;5083115;28;20231;-56
2023/12/23 12:05:13;;;;;;;5.83;1.80;;;12.40;98.20;;;;;;5082339;28;20194;-56
2023/12/23 12:07:42;;;;;;;11.03;2.10;;;12.20;93.80;;;;;;5081233;28;20203;-56
2023/12/23 12:10:14;;;;;;;7.23;2.00;;;12.20;94.90;;;;;;5078052;28;20222;-56
2023/12/23 12:12:45;;;;;;;5.37;1.97;;;12.30;91.00;;;;;;5085017;28;20222;-56
2023/12/23 12:15:16;;;;;;;4.40;1.83;;;12.30;91.40;;;;;;5080651;28;20680;-56
2023/12/23 12:17:44;;;;;;;3.63;1.97;;;12.20;90.70;;;;;;5081059;28;20300;-56
2023/12/23 12:20:13;;;;;;;10.70;1.93;;;12.10;94.00;;;;;;5084318;28;20213;-55
2023/12/23 12:22:43;;;;;;;5.50;2.10;;;12.10;96.90;;;;;;5084294;28;20215;-56
2023/12/23 12:25:15;;;;;;;7.03;2.60;;;12.10;95.50;;;;;;5082708;28;20546;-56
2023/12/23 12:27:46;;;;;;;4.77;2.00;;;11.90;98.10;;;;;;5078798;28;20222;-56
2023/12/23 12:30:14;;;;;;;7.97;2.33;;;11.90;97.60;;;;;;5079011;28;20223;-56
2023/12/23 12:32:44;;;;;;;3.57;2.03;;;11.90;97.80;;;;;;5082833;28;20294;-56
2023/12/23 12:35:12;;;;;;;9.43;2.13;;;11.80;98.70;;;;;;5083968;28;20282;-57
2023/12/23 12:37:41;;;;;;;5.43;1.97;;;11.80;98.30;;;;;;5078541;28;20206;-56
2023/12/23 12:40:12;;;;;;;4.57;1.57;;;11.90;98.20;;;;;;5078262;28;20223;-57
2023/12/23 12:42:50;;;;;;;7.57;2.10;;;11.90;98.70;;;;;;5080559;28;20226;-56
2023/12/23 12:45:19;;;;;;;5.67;2.20;;;11.90;99.70;;;;;;5083260;28;20223;-57
2023/12/23 12:47:48;;;;;;;11.07;2.30;;;11.90;97.30;;;;;;5081404;28;20223;-57
2023/12/23 12:50:19;;;;;;;4.67;1.83;;;11.90;95.50;;;;;;5083508;28;22117;-56
2023/12/23 12:52:48;;;;;;;4.93;1.80;;;11.90;96.20;;;;;;5082295;28;20183;-57
2023/12/23 12:55:24;;;;;;;6.80;2.20;;;11.90;95.70;;;;;;5081883;28;20219;-57
2023/12/23 12:57:54;;;;;;;3.20;2.10;;;11.90;95.90;;;;;;5083104;28;20230;-57
2023/12/23 13:00:23;;;;;;;6.10;1.80;;;11.90;94.70;;;;;;5086484;28;20237;-57